createdAt,value
2022-07-31T00:00:11.148Z,3.60
2022-07-31T00:03:13.487Z,4.20
2022-07-31T00:06:18.758Z,4.53
2022-07-31T00:09:48.921Z,4.18
2022-07-31T00:12:44.065Z,4.70
2022-07-31T00:15:47.917Z,4.90
2022-07-31T00:18:50.653Z,6.22
2022-07-31T00:21:53.121Z,5.95
2022-07-31T00:24:55.694Z,5.05
2022-07-31T00:28:03.187Z,4.15
2022-07-31T00:31:05.458Z,4.03
2022-07-31T00:34:07.973Z,5.72
2022-07-31T00:37:10.461Z,5.53
2022-07-31T00:40:16.091Z,4.85
2022-07-31T00:43:19.235Z,4.65
2022-07-31T00:46:21.556Z,4.47
2022-07-31T00:49:25.524Z,4.55
2022-07-31T00:52:39.677Z,4.47
2022-07-31T00:55:51.470Z,3.58
2022-07-31T00:58:55.570Z,4.60
2022-07-31T01:01:58.670Z,5.78
2022-07-31T01:05:00.954Z,4.75
2022-07-31T01:08:03.195Z,5.13
2022-07-31T01:11:22.345Z,4.10
2022-07-31T01:14:30.041Z,5.07
2022-07-31T01:17:33.184Z,7.43
2022-07-31T01:20:35.962Z,6.90
2022-07-31T01:23:57.304Z,6.28
2022-07-31T01:27:04.778Z,5.63
2022-07-31T01:30:08.358Z,5.95
2022-07-31T01:33:15.551Z,5.50
2022-07-31T01:36:22.385Z,4.18
2022-07-31T01:39:25.498Z,5.70
2022-07-31T01:42:29.402Z,4.88
2022-07-31T01:48:36.782Z,5.35
2022-07-31T01:51:41.873Z,4.78
2022-07-31T01:54:47.818Z,4.65
2022-07-31T01:57:51.383Z,4.82
2022-07-31T02:00:59.639Z,5.05
2022-07-31T02:04:02.861Z,4.40
2022-07-31T02:07:06.111Z,5.40
2022-07-31T02:10:14.578Z,5.17
2022-07-31T02:13:18.095Z,5.40
2022-07-31T02:16:21.547Z,5.70
2022-07-31T02:19:31.211Z,4.78
2022-07-31T02:22:34.816Z,5.32
2022-07-31T02:25:39.392Z,4.80
2022-07-31T02:28:44.203Z,4.90
2022-07-31T02:32:03.344Z,5.88
2022-07-31T02:35:07.944Z,5.30
2022-07-31T02:38:17.013Z,4.22
2022-07-31T02:41:26.796Z,4.10
2022-07-31T02:44:32.533Z,5.00
2022-07-31T02:47:36.886Z,5.60
2022-07-31T02:50:39.870Z,5.32
2022-07-31T02:53:43.796Z,5.35
2022-07-31T02:56:47.688Z,4.80
2022-07-31T03:02:53.953Z,5.65
2022-07-31T03:08:58.477Z,5.13
2022-07-31T03:12:04.483Z,4.95
2022-07-31T03:15:11.565Z,5.40
2022-07-31T03:18:16.543Z,5.28
2022-07-31T03:21:20.125Z,6.03
2022-07-31T03:24:22.574Z,4.40
2022-07-31T03:27:24.803Z,5.25
2022-07-31T03:30:27.287Z,5.07
2022-07-31T03:33:30.089Z,5.57
2022-07-31T03:36:32.338Z,5.47
2022-07-31T03:39:35.431Z,5.83
2022-07-31T03:42:37.818Z,5.05
2022-07-31T03:45:45.923Z,6.13
2022-07-31T03:48:52.481Z,5.53
2022-07-31T03:51:56.061Z,5.40
2022-07-31T03:54:58.380Z,4.70
2022-07-31T03:58:01.004Z,6.15
2022-07-31T04:01:04.612Z,4.60
2022-07-31T04:04:11.649Z,5.30
2022-07-31T04:07:14.120Z,5.22
2022-07-31T04:10:16.738Z,5.25
2022-07-31T04:13:19.003Z,5.45
2022-07-31T04:16:24.684Z,5.18
2022-07-31T04:19:26.899Z,5.35
2022-07-31T04:22:29.509Z,5.75
2022-07-31T04:25:33.691Z,5.90
2022-07-31T04:28:36.161Z,6.35
2022-07-31T04:31:38.332Z,4.97
2022-07-31T04:34:40.890Z,5.30
2022-07-31T04:37:48.020Z,4.85
2022-07-31T04:40:50.952Z,4.57
2022-07-31T04:43:53.364Z,4.82
2022-07-31T04:47:03.611Z,5.65
2022-07-31T04:50:06.566Z,5.07
2022-07-31T04:53:08.846Z,5.82
2022-07-31T04:56:29.441Z,6.50
2022-07-31T04:59:59.808Z,5.40
2022-07-31T05:02:54.663Z,5.60
2022-07-31T05:05:57.080Z,5.38
2022-07-31T05:08:59.325Z,5.25
2022-07-31T05:12:02.034Z,5.68
2022-07-31T05:15:04.964Z,4.60
2022-07-31T05:18:07.939Z,6.07
2022-07-31T05:21:10.056Z,5.97
2022-07-31T05:24:12.824Z,6.30
2022-07-31T05:27:15.088Z,5.45
2022-07-31T05:30:17.544Z,5.45
2022-07-31T05:33:32.757Z,5.57
2022-07-31T05:36:35.029Z,6.18
2022-07-31T05:39:37.300Z,4.63
2022-07-31T05:42:39.821Z,6.03
2022-07-31T05:45:42.297Z,6.50
2022-07-31T05:48:45.235Z,5.43
2022-07-31T05:51:47.539Z,5.88
2022-07-31T05:54:49.678Z,7.32
2022-07-31T05:57:51.867Z,5.55
2022-07-31T06:00:54.367Z,5.38
2022-07-31T06:03:56.914Z,4.65
2022-07-31T06:06:59.119Z,4.45
2022-07-31T06:10:01.957Z,5.07
2022-07-31T06:13:05.267Z,5.15
2022-07-31T06:16:12.901Z,4.28
2022-07-31T06:19:15.111Z,5.00
2022-07-31T06:22:17.503Z,4.47
2022-07-31T06:25:19.667Z,4.90
2022-07-31T06:28:21.890Z,5.35
2022-07-31T06:34:38.124Z,5.25
2022-07-31T06:37:40.225Z,4.50
2022-07-31T06:40:45.690Z,4.60
2022-07-31T06:43:47.867Z,3.85
2022-07-31T06:46:50.676Z,3.78
2022-07-31T06:49:53.995Z,3.80
2022-07-31T06:52:56.298Z,5.05
2022-07-31T06:55:58.412Z,4.40
2022-07-31T06:59:03.120Z,4.13
2022-07-31T07:02:05.556Z,3.40
2022-07-31T07:05:08.505Z,3.67
2022-07-31T07:08:10.729Z,4.65
2022-07-31T07:11:14.125Z,4.40
2022-07-31T07:14:16.616Z,5.63
2022-07-31T07:17:18.860Z,4.80
2022-07-31T07:20:21.423Z,3.80
2022-07-31T07:23:23.742Z,4.85
2022-07-31T07:26:26.170Z,4.70
2022-07-31T07:29:28.359Z,3.72
2022-07-31T07:32:30.514Z,3.60
2022-07-31T07:35:34.221Z,4.10
2022-07-31T07:38:36.736Z,4.63
2022-07-31T07:41:39.263Z,3.70
2022-07-31T07:44:42.656Z,3.85
2022-07-31T07:47:53.648Z,3.88
2022-07-31T07:51:07.559Z,3.10
2022-07-31T07:54:10.061Z,3.78
2022-07-31T07:57:20.740Z,3.63
2022-07-31T08:00:23.077Z,3.35
2022-07-31T08:03:48.999Z,3.97
2022-07-31T08:06:47.901Z,3.67
2022-07-31T08:09:50.073Z,3.22
2022-07-31T08:12:54.978Z,3.72
2022-07-31T08:15:57.113Z,3.55
2022-07-31T08:18:59.423Z,4.00
2022-07-31T08:22:02.120Z,4.22
2022-07-31T08:25:05.970Z,4.25
2022-07-31T08:28:12.410Z,4.03
2022-07-31T08:31:21.530Z,3.35
2022-07-31T08:34:31.557Z,3.75
2022-07-31T08:38:01.508Z,3.75
2022-07-31T08:40:56.772Z,3.50
2022-07-31T08:44:04.152Z,4.22
2022-07-31T08:47:08.277Z,3.95
2022-07-31T08:50:14.347Z,4.43
2022-07-31T08:53:17.644Z,3.88
2022-07-31T08:56:22.896Z,4.88
2022-07-31T08:59:26.382Z,4.07
2022-07-31T09:02:32.685Z,4.40
2022-07-31T09:05:41.774Z,3.72
2022-07-31T09:08:45.048Z,4.72
2022-07-31T09:11:53.998Z,4.15
2022-07-31T09:14:56.185Z,5.22
2022-07-31T09:17:58.688Z,4.78
2022-07-31T09:21:03.635Z,4.88
2022-07-31T09:24:07.966Z,4.95
2022-07-31T09:27:10.444Z,5.18
2022-07-31T09:30:13.202Z,4.40
2022-07-31T09:33:17.393Z,5.82
2022-07-31T09:36:24.063Z,4.68
2022-07-31T09:39:27.960Z,5.47
2022-07-31T09:42:45.733Z,5.18
2022-07-31T09:45:58.969Z,4.68
2022-07-31T09:49:01.232Z,5.30
2022-07-31T09:52:04.473Z,5.03
2022-07-31T09:55:17.029Z,3.88
2022-07-31T09:58:19.651Z,2.97
2022-07-31T10:01:22.389Z,3.47
2022-07-31T10:04:25.342Z,2.50
2022-07-31T10:07:32.348Z,2.20
2022-07-31T10:10:36.106Z,2.72
2022-07-31T10:13:44.476Z,2.30
2022-07-31T10:16:48.903Z,2.25
2022-07-31T10:19:54.261Z,1.70
2022-07-31T10:23:09.641Z,3.08
2022-07-31T10:26:12.753Z,1.90
2022-07-31T10:29:18.309Z,3.13
2022-07-31T10:32:21.974Z,2.10
2022-07-31T10:35:24.502Z,2.03
2022-07-31T10:38:56.382Z,1.48
2022-07-31T10:42:15.831Z,1.87
2022-07-31T10:45:18.313Z,1.98
2022-07-31T10:48:21.033Z,2.55
2022-07-31T10:51:29.594Z,1.42
2022-07-31T10:54:48.298Z,1.90
2022-07-31T10:57:56.973Z,1.67
2022-07-31T11:01:07.748Z,1.40
2022-07-31T11:04:10.041Z,1.48
2022-07-31T11:07:20.156Z,1.42
2022-07-31T11:10:22.467Z,0.95
2022-07-31T11:13:34.124Z,1.33
2022-07-31T11:16:55.971Z,1.33
2022-07-31T11:20:04.133Z,1.27
2022-07-31T11:23:08.718Z,1.45
2022-07-31T11:26:11.098Z,0.90
2022-07-31T11:30:01.279Z,1.08
2022-07-31T11:32:36.038Z,1.40
2022-07-31T11:38:44.798Z,1.20
2022-07-31T11:41:49.411Z,1.40
2022-07-31T11:44:54.806Z,0.88
2022-07-31T11:48:13.263Z,0.90
2022-07-31T11:51:20.288Z,1.13
2022-07-31T11:54:24.339Z,1.33
2022-07-31T11:57:51.134Z,1.20
2022-07-31T12:00:59.138Z,1.80
2022-07-31T12:04:08.683Z,1.10
2022-07-31T12:07:11.383Z,1.15
2022-07-31T12:10:14.116Z,0.52
2022-07-31T12:13:19.219Z,0.90
2022-07-31T12:16:21.706Z,0.60
2022-07-31T12:19:31.768Z,0.60
2022-07-31T12:22:40.062Z,0.40
2022-07-31T12:25:43.654Z,0.77
2022-07-31T12:28:57.720Z,1.10
2022-07-31T12:32:00.451Z,0.70
2022-07-31T12:35:04.584Z,0.82
2022-07-31T12:38:30.024Z,0.68
2022-07-31T12:41:30.889Z,0.85
2022-07-31T12:44:33.263Z,0.65
2022-07-31T12:47:35.716Z,1.23
2022-07-31T12:50:37.823Z,1.08
2022-07-31T12:53:40.760Z,1.23
2022-07-31T12:56:44.015Z,1.70
2022-07-31T12:59:48.133Z,0.47
2022-07-31T13:02:53.634Z,0.70
2022-07-31T13:05:56.715Z,1.33
2022-07-31T13:08:59.184Z,0.57
2022-07-31T13:12:01.869Z,1.35
2022-07-31T13:15:04.428Z,0.85
2022-07-31T13:18:10.017Z,0.70
2022-07-31T13:21:14.313Z,0.60
2022-07-31T13:24:20.627Z,1.13
2022-07-31T13:27:22.791Z,0.50
2022-07-31T13:30:25.381Z,0.68
2022-07-31T13:33:27.857Z,0.60
2022-07-31T13:36:34.081Z,0.73
2022-07-31T13:39:40.503Z,0.68
2022-07-31T13:42:44.677Z,0.82
2022-07-31T13:45:46.774Z,1.17
2022-07-31T13:48:50.808Z,0.50
2022-07-31T13:51:53.176Z,1.00
2022-07-31T13:54:55.603Z,0.60
2022-07-31T13:57:59.809Z,1.20
2022-07-31T14:01:04.767Z,0.73
2022-07-31T14:04:07.059Z,1.10
2022-07-31T14:07:09.656Z,1.30
2022-07-31T14:10:20.242Z,0.82
2022-07-31T14:13:23.438Z,1.00
2022-07-31T14:16:25.667Z,1.40
2022-07-31T14:19:27.931Z,1.10
2022-07-31T14:22:30.948Z,1.08
2022-07-31T14:25:33.704Z,1.13
2022-07-31T14:28:35.929Z,1.05
2022-07-31T14:31:38.103Z,1.10
2022-07-31T14:34:40.220Z,1.17
2022-07-31T14:37:42.925Z,1.10
2022-07-31T14:40:46.083Z,0.90
2022-07-31T14:43:48.556Z,1.63
2022-07-31T14:46:50.928Z,3.63
2022-07-31T14:50:09.525Z,12.00
2022-07-31T14:53:13.571Z,15.93
2022-07-31T14:56:27.355Z,17.35
2022-07-31T14:59:38.718Z,16.92
2022-07-31T15:06:49.422Z,9.02
2022-07-31T15:09:11.530Z,7.53
2022-07-31T15:12:17.059Z,7.82
2022-07-31T15:15:21.280Z,6.78
2022-07-31T15:18:25.722Z,9.07
2022-07-31T15:21:28.366Z,9.30
2022-07-31T15:24:30.747Z,7.57
2022-07-31T15:27:32.880Z,4.95
2022-07-31T15:30:36.703Z,2.95
2022-07-31T15:33:39.427Z,2.85
2022-07-31T15:36:43.269Z,2.95
2022-07-31T15:39:45.395Z,2.63
2022-07-31T15:43:05.375Z,2.25
2022-07-31T15:46:09.606Z,2.28
2022-07-31T15:49:12.020Z,2.28
2022-07-31T15:52:18.009Z,2.13
2022-07-31T15:55:22.372Z,1.50
2022-07-31T15:58:24.776Z,1.88
2022-07-31T16:01:30.922Z,1.63
2022-07-31T16:04:35.159Z,1.45
2022-07-31T16:08:32.918Z,1.40
2022-07-31T16:10:59.976Z,1.77
2022-07-31T16:14:02.122Z,2.03
2022-07-31T16:17:05.740Z,1.20
2022-07-31T16:20:09.937Z,2.38
2022-07-31T16:23:12.287Z,2.33
2022-07-31T16:26:14.544Z,1.73
2022-07-31T16:29:17.758Z,2.53
2022-07-31T16:32:39.890Z,2.65
2022-07-31T16:35:42.365Z,2.72
2022-07-31T16:38:59.485Z,2.92
2022-07-31T16:42:06.955Z,2.92
2022-07-31T16:45:09.801Z,3.92
2022-07-31T16:48:12.164Z,2.90
2022-07-31T16:51:14.593Z,3.58
2022-07-31T16:54:16.832Z,3.27
2022-07-31T16:57:21.442Z,2.95
2022-07-31T17:00:24.759Z,3.63
2022-07-31T17:04:01.124Z,3.03
2022-07-31T17:06:49.345Z,2.10
2022-07-31T17:09:51.949Z,1.87
2022-07-31T17:12:55.304Z,1.92
2022-07-31T17:15:57.465Z,2.30
2022-07-31T17:18:59.794Z,2.70
2022-07-31T17:22:11.382Z,3.25
2022-07-31T17:25:13.797Z,1.63
2022-07-31T17:28:16.238Z,1.98
2022-07-31T17:31:19.333Z,2.50
2022-07-31T17:37:25.983Z,2.15
2022-07-31T17:40:43.034Z,1.95
2022-07-31T17:43:50.403Z,1.48
2022-07-31T17:46:55.114Z,1.85
2022-07-31T17:49:57.634Z,1.63
2022-07-31T17:56:02.824Z,2.17
2022-07-31T17:59:06.011Z,2.10
2022-07-31T18:02:08.788Z,1.77
2022-07-31T18:05:11.671Z,1.90
2022-07-31T18:08:14.035Z,2.03
2022-07-31T18:11:16.739Z,2.25
2022-07-31T18:14:19.516Z,1.58
2022-07-31T18:17:23.612Z,2.42
2022-07-31T18:20:25.996Z,1.58
2022-07-31T18:23:32.084Z,1.93
2022-07-31T18:26:38.146Z,2.00
2022-07-31T18:29:40.659Z,2.05
2022-07-31T18:32:42.998Z,2.78
2022-07-31T18:35:48.375Z,2.20
2022-07-31T18:38:52.263Z,1.88
2022-07-31T18:41:54.511Z,2.35
2022-07-31T18:44:57.511Z,1.77
2022-07-31T18:47:59.682Z,1.70
2022-07-31T18:51:04.897Z,2.15
2022-07-31T18:54:08.066Z,3.00
2022-07-31T18:57:10.374Z,2.22
2022-07-31T19:00:12.986Z,3.43
2022-07-31T19:03:15.162Z,2.70
2022-07-31T19:06:17.860Z,2.20
2022-07-31T19:09:22.148Z,3.10
2022-07-31T19:12:24.413Z,3.85
2022-07-31T19:15:26.709Z,3.30
2022-07-31T19:18:29.263Z,3.27
2022-07-31T19:21:41.393Z,3.87
2022-07-31T19:24:44.201Z,2.67
2022-07-31T19:27:48.525Z,2.90
2022-07-31T19:30:53.007Z,3.40
2022-07-31T19:33:55.362Z,3.92
2022-07-31T19:36:57.513Z,2.70
2022-07-31T19:40:00.130Z,3.53
2022-07-31T19:43:02.660Z,3.80
2022-07-31T19:46:11.922Z,3.08
2022-07-31T19:49:14.940Z,3.33
2022-07-31T19:52:18.716Z,3.60
2022-07-31T19:55:20.991Z,3.25
2022-07-31T19:58:23.192Z,4.18
2022-07-31T20:01:30.121Z,3.92
2022-07-31T20:04:32.416Z,4.30
2022-07-31T20:07:34.824Z,3.78
2022-07-31T20:10:37.743Z,4.55
2022-07-31T20:13:42.956Z,3.75
2022-07-31T20:16:45.547Z,4.07
2022-07-31T20:20:02.896Z,4.40
2022-07-31T20:23:10.060Z,4.10
2022-07-31T20:26:14.445Z,4.60
2022-07-31T20:29:16.888Z,3.95
2022-07-31T20:32:19.261Z,4.25
2022-07-31T20:35:29.047Z,3.88
2022-07-31T20:38:48.306Z,3.95
2022-07-31T20:41:50.919Z,5.38
2022-07-31T20:44:53.122Z,5.38
2022-07-31T20:47:57.840Z,4.25
2022-07-31T20:51:03.157Z,5.53
2022-07-31T20:54:05.849Z,3.80
2022-07-31T20:57:08.225Z,5.25
2022-07-31T21:00:11.123Z,4.30
2022-07-31T21:03:13.945Z,4.60
2022-07-31T21:06:16.643Z,4.47
2022-07-31T21:09:19.070Z,4.37
2022-07-31T21:12:21.430Z,4.97
2022-07-31T21:15:42.956Z,4.22
2022-07-31T21:18:50.773Z,3.67
2022-07-31T21:21:53.175Z,4.45
2022-07-31T21:24:55.803Z,5.07
2022-07-31T21:27:59.089Z,4.80
2022-07-31T21:31:01.409Z,41.72
2022-07-31T21:34:03.924Z,43.42
2022-07-31T21:37:07.420Z,75.82
2022-07-31T21:40:10.880Z,54.22
2022-07-31T21:43:16.887Z,41.47
2022-07-31T21:46:25.314Z,73.05
2022-07-31T21:49:32.792Z,57.92
2022-07-31T21:52:35.628Z,42.58
2022-07-31T21:55:39.619Z,45.20
2022-07-31T21:58:47.008Z,70.75
2022-07-31T22:01:57.801Z,82.68
2022-07-31T22:05:21.435Z,91.20
2022-07-31T22:08:23.712Z,91.90
2022-07-31T22:11:25.820Z,99.82
2022-07-31T22:14:27.976Z,106.97
2022-07-31T22:17:30.340Z,99.57
2022-07-31T22:20:32.756Z,114.82
2022-07-31T22:23:35.564Z,108.10
2022-07-31T22:26:38.150Z,122.50
2022-07-31T22:29:41.120Z,115.95
2022-07-31T22:32:43.850Z,122.55
2022-07-31T22:35:59.738Z,124.70
2022-07-31T22:39:03.069Z,133.43
2022-07-31T22:42:06.859Z,138.45
2022-07-31T22:45:09.779Z,134.90
2022-07-31T22:48:13.899Z,124.00
2022-07-31T22:51:16.404Z,113.18
2022-07-31T22:54:19.518Z,88.82
2022-07-31T22:57:23.154Z,79.25
2022-07-31T23:00:31.398Z,62.80
2022-07-31T23:03:33.992Z,53.03
2022-07-31T23:06:36.335Z,47.50
2022-07-31T23:09:38.877Z,41.58
2022-07-31T23:12:41.017Z,38.70
2022-07-31T23:15:43.987Z,38.80
2022-07-31T23:18:47.360Z,40.08
2022-07-31T23:21:49.727Z,34.75
2022-07-31T23:24:53.691Z,35.63
2022-07-31T23:27:57.189Z,33.10
2022-07-31T23:30:59.255Z,30.92
2022-07-31T23:34:01.778Z,22.42
2022-07-31T23:37:09.337Z,22.48
2022-07-31T23:40:12.303Z,22.20
2022-07-31T23:43:18.205Z,20.48
2022-07-31T23:46:26.804Z,21.48
2022-07-31T23:49:29.897Z,22.08
2022-07-31T23:52:32.570Z,20.40
2022-07-31T23:55:42.901Z,20.52
2022-07-31T23:58:45.169Z,20.00
